sensor_id;sensor_type;location;lat;lon;timestamp;temperature;humidity
47434;SHT31;33184;48.774;8.918;2023-08-06T00:00:16;14.71;84.27
47434;SHT31;33184;48.774;8.918;2023-08-06T00:05:41;14.64;84.68
47434;SHT31;33184;48.774;8.918;2023-08-06T00:11:03;14.54;84.75
47434;SHT31;33184;48.774;8.918;2023-08-06T00:16:23;14.48;85.20
47434;SHT31;33184;48.774;8.918;2023-08-06T00:21:44;14.42;84.80
47434;SHT31;33184;48.774;8.918;2023-08-06T00:27:04;14.32;84.93
47434;SHT31;33184;48.774;8.918;2023-08-06T00:32:25;14.28;84.64
47434;SHT31;33184;48.774;8.918;2023-08-06T00:37:46;14.20;84.66
47434;SHT31;33184;48.774;8.918;2023-08-06T00:43:08;14.11;84.80
47434;SHT31;33184;48.774;8.918;2023-08-06T00:48:28;13.97;84.97
47434;SHT31;33184;48.774;8.918;2023-08-06T00:53:50;13.96;85.28
47434;SHT31;33184;48.774;8.918;2023-08-06T00:59:11;13.89;85.38
47434;SHT31;33184;48.774;8.918;2023-08-06T01:04:32;13.89;85.30
47434;SHT31;33184;48.774;8.918;2023-08-06T01:15:45;13.80;85.56
47434;SHT31;33184;48.774;8.918;2023-08-06T01:21:06;13.73;85.41
47434;SHT31;33184;48.774;8.918;2023-08-06T01:26:33;13.67;85.65
47434;SHT31;33184;48.774;8.918;2023-08-06T01:31:56;13.63;85.93
47434;SHT31;33184;48.774;8.918;2023-08-06T01:37:18;13.63;85.57
47434;SHT31;33184;48.774;8.918;2023-08-06T01:42:38;13.66;85.12
47434;SHT31;33184;48.774;8.918;2023-08-06T01:47:59;13.65;84.88
47434;SHT31;33184;48.774;8.918;2023-08-06T01:53:20;13.52;85.19
47434;SHT31;33184;48.774;8.918;2023-08-06T01:58:40;13.45;85.49
47434;SHT31;33184;48.774;8.918;2023-08-06T02:04:01;13.39;85.52
47434;SHT31;33184;48.774;8.918;2023-08-06T02:09:23;13.45;85.59
47434;SHT31;33184;48.774;8.918;2023-08-06T02:14:43;13.48;85.14
47434;SHT31;33184;48.774;8.918;2023-08-06T02:20:04;13.49;84.87
47434;SHT31;33184;48.774;8.918;2023-08-06T02:25:25;13.48;84.71
47434;SHT31;33184;48.774;8.918;2023-08-06T02:30:52;13.59;84.45
47434;SHT31;33184;48.774;8.918;2023-08-06T02:36:12;13.59;84.50
47434;SHT31;33184;48.774;8.918;2023-08-06T02:41:33;13.58;84.61
47434;SHT31;33184;48.774;8.918;2023-08-06T02:46:53;13.59;84.63
47434;SHT31;33184;48.774;8.918;2023-08-06T02:52:14;13.65;84.79
47434;SHT31;33184;48.774;8.918;2023-08-06T02:57:36;13.60;84.85
47434;SHT31;33184;48.774;8.918;2023-08-06T03:02:56;13.65;84.85
47434;SHT31;33184;48.774;8.918;2023-08-06T03:08:25;13.56;84.78
47434;SHT31;33184;48.774;8.918;2023-08-06T03:13:47;13.52;85.45
47434;SHT31;33184;48.774;8.918;2023-08-06T03:19:07;13.49;85.98
47434;SHT31;33184;48.774;8.918;2023-08-06T03:24:29;13.50;86.35
47434;SHT31;33184;48.774;8.918;2023-08-06T03:29:50;13.52;86.48
47434;SHT31;33184;48.774;8.918;2023-08-06T03:35:12;13.55;86.66
47434;SHT31;33184;48.774;8.918;2023-08-06T03:40:35;13.52;86.93
47434;SHT31;33184;48.774;8.918;2023-08-06T03:45:56;13.58;87.08
47434;SHT31;33184;48.774;8.918;2023-08-06T03:51:17;13.62;87.74
47434;SHT31;33184;48.774;8.918;2023-08-06T03:56:40;13.60;87.86
47434;SHT31;33184;48.774;8.918;2023-08-06T04:02:00;13.59;88.04
47434;SHT31;33184;48.774;8.918;2023-08-06T04:07:21;13.56;88.28
47434;SHT31;33184;48.774;8.918;2023-08-06T04:12:42;13.56;88.62
47434;SHT31;33184;48.774;8.918;2023-08-06T04:18:02;13.55;89.08
47434;SHT31;33184;48.774;8.918;2023-08-06T04:23:23;13.56;89.25
47434;SHT31;33184;48.774;8.918;2023-08-06T04:28:47;13.60;88.85
47434;SHT31;33184;48.774;8.918;2023-08-06T04:34:09;13.56;88.46
47434;SHT31;33184;48.774;8.918;2023-08-06T04:39:32;13.53;88.63
47434;SHT31;33184;48.774;8.918;2023-08-06T04:44:52;13.55;88.53
47434;SHT31;33184;48.774;8.918;2023-08-06T04:50:13;13.52;88.61
47434;SHT31;33184;48.774;8.918;2023-08-06T04:55:34;13.65;88.63
47434;SHT31;33184;48.774;8.918;2023-08-06T05:00:54;13.73;88.58
47434;SHT31;33184;48.774;8.918;2023-08-06T05:06:15;13.75;88.60
47434;SHT31;33184;48.774;8.918;2023-08-06T05:11:36;13.76;88.66
47434;SHT31;33184;48.774;8.918;2023-08-06T05:16:56;13.93;88.05
47434;SHT31;33184;48.774;8.918;2023-08-06T05:22:17;13.96;87.76
47434;SHT31;33184;48.774;8.918;2023-08-06T05:27:37;14.06;87.89
47434;SHT31;33184;48.774;8.918;2023-08-06T05:32:58;13.96;85.85
47434;SHT31;33184;48.774;8.918;2023-08-06T05:38:18;13.89;86.37
47434;SHT31;33184;48.774;8.918;2023-08-06T05:43:39;13.93;86.56
47434;SHT31;33184;48.774;8.918;2023-08-06T05:48:59;13.89;86.50
47434;SHT31;33184;48.774;8.918;2023-08-06T05:54:20;13.80;86.99
47434;SHT31;33184;48.774;8.918;2023-08-06T05:59:41;13.73;87.75
47434;SHT31;33184;48.774;8.918;2023-08-06T06:05:02;13.76;88.14
47434;SHT31;33184;48.774;8.918;2023-08-06T06:10:22;13.67;88.33
47434;SHT31;33184;48.774;8.918;2023-08-06T06:15:43;13.76;88.34
47434;SHT31;33184;48.774;8.918;2023-08-06T06:21:03;13.79;88.36
47434;SHT31;33184;48.774;8.918;2023-08-06T06:26:24;13.82;88.19
47434;SHT31;33184;48.774;8.918;2023-08-06T06:31:45;14.04;87.89
47434;SHT31;33184;48.774;8.918;2023-08-06T06:37:05;14.03;87.34
47434;SHT31;33184;48.774;8.918;2023-08-06T06:42:26;13.94;87.27
47434;SHT31;33184;48.774;8.918;2023-08-06T06:47:52;13.86;87.19
47434;SHT31;33184;48.774;8.918;2023-08-06T06:53:13;13.83;87.44
47434;SHT31;33184;48.774;8.918;2023-08-06T06:58:34;13.80;87.46
47434;SHT31;33184;48.774;8.918;2023-08-06T07:03:55;13.73;87.90
47434;SHT31;33184;48.774;8.918;2023-08-06T07:09:15;13.69;88.47
47434;SHT31;33184;48.774;8.918;2023-08-06T07:14:36;13.72;88.60
47434;SHT31;33184;48.774;8.918;2023-08-06T07:19:57;13.73;88.92
47434;SHT31;33184;48.774;8.918;2023-08-06T07:25:17;13.76;89.05
47434;SHT31;33184;48.774;8.918;2023-08-06T07:30:39;13.80;89.27
47434;SHT31;33184;48.774;8.918;2023-08-06T07:35:59;13.80;89.34
47434;SHT31;33184;48.774;8.918;2023-08-06T07:41:20;13.72;89.00
47434;SHT31;33184;48.774;8.918;2023-08-06T07:46:41;13.76;89.21
47434;SHT31;33184;48.774;8.918;2023-08-06T07:52:02;13.93;88.86
47434;SHT31;33184;48.774;8.918;2023-08-06T07:57:22;14.09;88.27
47434;SHT31;33184;48.774;8.918;2023-08-06T08:02:43;14.30;87.87
47434;SHT31;33184;48.774;8.918;2023-08-06T08:08:04;14.30;87.26
47434;SHT31;33184;48.774;8.918;2023-08-06T08:13:24;14.31;87.33
47434;SHT31;33184;48.774;8.918;2023-08-06T08:18:45;14.37;87.39
47434;SHT31;33184;48.774;8.918;2023-08-06T08:24:05;14.44;87.71
47434;SHT31;33184;48.774;8.918;2023-08-06T08:29:27;14.51;87.65
47434;SHT31;33184;48.774;8.918;2023-08-06T08:34:48;14.58;87.01
47434;SHT31;33184;48.774;8.918;2023-08-06T08:40:09;14.65;86.86
47434;SHT31;33184;48.774;8.918;2023-08-06T08:45:34;14.64;86.68
47434;SHT31;33184;48.774;8.918;2023-08-06T08:50:59;14.40;86.95
47434;SHT31;33184;48.774;8.918;2023-08-06T08:56:22;14.48;87.36
47434;SHT31;33184;48.774;8.918;2023-08-06T09:01:43;14.69;87.47
47434;SHT31;33184;48.774;8.918;2023-08-06T09:07:07;14.71;86.38
47434;SHT31;33184;48.774;8.918;2023-08-06T09:12:29;14.68;86.25
47434;SHT31;33184;48.774;8.918;2023-08-06T09:17:49;14.64;86.17
47434;SHT31;33184;48.774;8.918;2023-08-06T09:23:10;14.71;86.50
47434;SHT31;33184;48.774;8.918;2023-08-06T09:28:38;14.62;84.92
47434;SHT31;33184;48.774;8.918;2023-08-06T09:34:16;14.74;86.02
47434;SHT31;33184;48.774;8.918;2023-08-06T09:39:39;14.69;85.63
47434;SHT31;33184;48.774;8.918;2023-08-06T09:45:06;14.68;85.06
47434;SHT31;33184;48.774;8.918;2023-08-06T09:50:31;14.58;84.53
47434;SHT31;33184;48.774;8.918;2023-08-06T09:55:52;14.50;84.84
47434;SHT31;33184;48.774;8.918;2023-08-06T10:01:13;14.57;85.95
47434;SHT31;33184;48.774;8.918;2023-08-06T10:06:36;14.54;85.88
47434;SHT31;33184;48.774;8.918;2023-08-06T10:11:57;14.45;86.36
47434;SHT31;33184;48.774;8.918;2023-08-06T10:17:19;14.71;87.11
47434;SHT31;33184;48.774;8.918;2023-08-06T10:22:43;14.86;85.74
47434;SHT31;33184;48.774;8.918;2023-08-06T10:28:09;14.76;86.28
47434;SHT31;33184;48.774;8.918;2023-08-06T10:33:43;14.76;84.69
47434;SHT31;33184;48.774;8.918;2023-08-06T10:39:04;14.57;85.75
47434;SHT31;33184;48.774;8.918;2023-08-06T10:44:25;14.55;83.87
47434;SHT31;33184;48.774;8.918;2023-08-06T10:49:45;14.54;83.13
47434;SHT31;33184;48.774;8.918;2023-08-06T10:55:06;14.51;82.34
47434;SHT31;33184;48.774;8.918;2023-08-06T11:00:27;14.50;82.80
47434;SHT31;33184;48.774;8.918;2023-08-06T11:05:49;14.40;83.25
47434;SHT31;33184;48.774;8.918;2023-08-06T11:11:11;14.25;83.50
47434;SHT31;33184;48.774;8.918;2023-08-06T11:16:33;14.28;82.22
47434;SHT31;33184;48.774;8.918;2023-08-06T11:21:54;14.20;81.88
47434;SHT31;33184;48.774;8.918;2023-08-06T11:27:16;14.06;82.55
47434;SHT31;33184;48.774;8.918;2023-08-06T11:32:47;14.00;82.43
47434;SHT31;33184;48.774;8.918;2023-08-06T11:38:08;13.89;83.09
47434;SHT31;33184;48.774;8.918;2023-08-06T11:43:30;13.77;83.44
47434;SHT31;33184;48.774;8.918;2023-08-06T11:48:56;13.69;83.42
47434;SHT31;33184;48.774;8.918;2023-08-06T11:54:30;13.80;83.68
47434;SHT31;33184;48.774;8.918;2023-08-06T11:59:53;13.83;83.65
47434;SHT31;33184;48.774;8.918;2023-08-06T12:10:35;13.79;83.80
47434;SHT31;33184;48.774;8.918;2023-08-06T12:15:55;13.70;83.34
47434;SHT31;33184;48.774;8.918;2023-08-06T12:21:17;14.01;81.53
47434;SHT31;33184;48.774;8.918;2023-08-06T12:26:39;14.28;80.94
47434;SHT31;33184;48.774;8.918;2023-08-06T12:32:00;14.38;79.31
47434;SHT31;33184;48.774;8.918;2023-08-06T12:37:20;14.48;79.88
47434;SHT31;33184;48.774;8.918;2023-08-06T12:42:41;14.25;81.84
47434;SHT31;33184;48.774;8.918;2023-08-06T12:48:03;14.04;81.98
47434;SHT31;33184;48.774;8.918;2023-08-06T12:53:24;14.14;81.78
47434;SHT31;33184;48.774;8.918;2023-08-06T12:58:45;14.24;79.22
47434;SHT31;33184;48.774;8.918;2023-08-06T13:04:06;14.54;77.79
47434;SHT31;33184;48.774;8.918;2023-08-06T13:09:26;14.64;77.04
47434;SHT31;33184;48.774;8.918;2023-08-06T13:14:48;14.85;76.11
47434;SHT31;33184;48.774;8.918;2023-08-06T13:20:09;14.86;76.21
47434;SHT31;33184;48.774;8.918;2023-08-06T13:25:29;14.82;75.90
47434;SHT31;33184;48.774;8.918;2023-08-06T13:30:50;14.69;75.85
47434;SHT31;33184;48.774;8.918;2023-08-06T13:36:11;14.65;76.08
47434;SHT31;33184;48.774;8.918;2023-08-06T13:41:31;14.76;76.05
47434;SHT31;33184;48.774;8.918;2023-08-06T13:46:52;15.17;75.30
47434;SHT31;33184;48.774;8.918;2023-08-06T13:52:12;15.19;74.52
47434;SHT31;33184;48.774;8.918;2023-08-06T13:57:34;15.40;73.58
47434;SHT31;33184;48.774;8.918;2023-08-06T14:02:55;15.56;75.26
47434;SHT31;33184;48.774;8.918;2023-08-06T14:08:16;16.01;72.09
47434;SHT31;33184;48.774;8.918;2023-08-06T14:13:39;16.33;71.38
47434;SHT31;33184;48.774;8.918;2023-08-06T14:19:00;17.06;69.02
47434;SHT31;33184;48.774;8.918;2023-08-06T14:24:20;16.19;70.44
47434;SHT31;33184;48.774;8.918;2023-08-06T14:29:41;15.27;76.81
47434;SHT31;33184;48.774;8.918;2023-08-06T14:35:02;14.67;81.40
47434;SHT31;33184;48.774;8.918;2023-08-06T14:40:22;14.51;81.05
47434;SHT31;33184;48.774;8.918;2023-08-06T14:45:44;14.21;81.65
47434;SHT31;33184;48.774;8.918;2023-08-06T14:51:05;14.30;82.96
47434;SHT31;33184;48.774;8.918;2023-08-06T14:56:26;14.60;82.39
47434;SHT31;33184;48.774;8.918;2023-08-06T15:01:46;15.95;76.67
47434;SHT31;33184;48.774;8.918;2023-08-06T15:07:07;16.84;72.07
47434;SHT31;33184;48.774;8.918;2023-08-06T15:12:30;16.59;70.73
47434;SHT31;33184;48.774;8.918;2023-08-06T15:17:52;16.59;71.40
47434;SHT31;33184;48.774;8.918;2023-08-06T15:23:12;16.49;71.28
47434;SHT31;33184;48.774;8.918;2023-08-06T15:28:33;15.84;72.98
47434;SHT31;33184;48.774;8.918;2023-08-06T15:33:53;15.56;73.33
47434;SHT31;33184;48.774;8.918;2023-08-06T15:39:14;15.50;73.82
47434;SHT31;33184;48.774;8.918;2023-08-06T15:44:35;15.40;74.07
47434;SHT31;33184;48.774;8.918;2023-08-06T15:49:55;15.05;74.29
47434;SHT31;33184;48.774;8.918;2023-08-06T15:55:16;15.75;73.11
47434;SHT31;33184;48.774;8.918;2023-08-06T16:00:36;15.27;74.86
47434;SHT31;33184;48.774;8.918;2023-08-06T16:05:57;14.88;77.42
47434;SHT31;33184;48.774;8.918;2023-08-06T16:11:17;14.42;78.73
47434;SHT31;33184;48.774;8.918;2023-08-06T16:16:38;14.37;78.52
47434;SHT31;33184;48.774;8.918;2023-08-06T16:21:59;14.18;78.64
47434;SHT31;33184;48.774;8.918;2023-08-06T16:27:20;14.35;77.79
47434;SHT31;33184;48.774;8.918;2023-08-06T16:32:40;14.98;76.05
47434;SHT31;33184;48.774;8.918;2023-08-06T16:38:01;14.68;74.87
47434;SHT31;33184;48.774;8.918;2023-08-06T16:43:23;14.42;75.16
47434;SHT31;33184;48.774;8.918;2023-08-06T16:48:43;14.20;76.43
47434;SHT31;33184;48.774;8.918;2023-08-06T16:54:04;14.14;77.45
47434;SHT31;33184;48.774;8.918;2023-08-06T16:59:25;13.80;79.99
47434;SHT31;33184;48.774;8.918;2023-08-06T17:04:45;13.50;82.95
47434;SHT31;33184;48.774;8.918;2023-08-06T17:10:06;13.24;84.70
47434;SHT31;33184;48.774;8.918;2023-08-06T17:15:27;13.16;84.28
47434;SHT31;33184;48.774;8.918;2023-08-06T17:20:47;13.21;84.47
47434;SHT31;33184;48.774;8.918;2023-08-06T17:26:08;13.16;84.83
47434;SHT31;33184;48.774;8.918;2023-08-06T17:31:29;13.12;85.25
47434;SHT31;33184;48.774;8.918;2023-08-06T17:36:49;13.10;84.77
47434;SHT31;33184;48.774;8.918;2023-08-06T17:42:10;13.01;85.16
47434;SHT31;33184;48.774;8.918;2023-08-06T17:47:30;12.98;85.12
47434;SHT31;33184;48.774;8.918;2023-08-06T17:52:51;12.93;84.59
47434;SHT31;33184;48.774;8.918;2023-08-06T17:58:12;12.90;84.62
47434;SHT31;33184;48.774;8.918;2023-08-06T18:03:32;12.90;83.74
47434;SHT31;33184;48.774;8.918;2023-08-06T18:08:53;12.90;83.79
47434;SHT31;33184;48.774;8.918;2023-08-06T18:14:13;12.94;83.29
47434;SHT31;33184;48.774;8.918;2023-08-06T18:19:34;13.00;82.86
47434;SHT31;33184;48.774;8.918;2023-08-06T18:24:54;13.00;82.29
47434;SHT31;33184;48.774;8.918;2023-08-06T18:30:17;12.97;81.99
47434;SHT31;33184;48.774;8.918;2023-08-06T18:35:41;12.94;82.22
47434;SHT31;33184;48.774;8.918;2023-08-06T18:41:01;12.97;81.70
47434;SHT31;33184;48.774;8.918;2023-08-06T18:46:22;13.00;81.65
47434;SHT31;33184;48.774;8.918;2023-08-06T18:51:42;13.00;81.45
47434;SHT31;33184;48.774;8.918;2023-08-06T18:57:03;13.08;81.19
47434;SHT31;33184;48.774;8.918;2023-08-06T19:02:24;13.07;81.38
47434;SHT31;33184;48.774;8.918;2023-08-06T19:07:44;13.07;80.40
47434;SHT31;33184;48.774;8.918;2023-08-06T19:13:10;13.10;80.23
47434;SHT31;33184;48.774;8.918;2023-08-06T19:18:31;13.12;79.65
47434;SHT31;33184;48.774;8.918;2023-08-06T19:23:51;13.15;79.28
47434;SHT31;33184;48.774;8.918;2023-08-06T19:29:12;13.15;78.93
47434;SHT31;33184;48.774;8.918;2023-08-06T19:34:34;13.16;77.35
47434;SHT31;33184;48.774;8.918;2023-08-06T19:39:54;13.21;76.99
47434;SHT31;33184;48.774;8.918;2023-08-06T19:45:15;13.18;76.82
47434;SHT31;33184;48.774;8.918;2023-08-06T19:50:36;13.14;76.60
47434;SHT31;33184;48.774;8.918;2023-08-06T19:55:57;13.15;76.00
47434;SHT31;33184;48.774;8.918;2023-08-06T20:01:18;13.12;76.30
47434;SHT31;33184;48.774;8.918;2023-08-06T20:06:38;13.01;76.81
47434;SHT31;33184;48.774;8.918;2023-08-06T20:12:01;12.71;78.85
47434;SHT31;33184;48.774;8.918;2023-08-06T20:17:22;12.44;80.64
47434;SHT31;33184;48.774;8.918;2023-08-06T20:22:44;12.28;82.14
47434;SHT31;33184;48.774;8.918;2023-08-06T20:28:05;12.09;83.59
47434;SHT31;33184;48.774;8.918;2023-08-06T20:33:26;11.96;84.49
47434;SHT31;33184;48.774;8.918;2023-08-06T20:38:46;11.85;85.43
47434;SHT31;33184;48.774;8.918;2023-08-06T20:44:07;11.78;85.67
47434;SHT31;33184;48.774;8.918;2023-08-06T20:49:27;11.71;85.85
47434;SHT31;33184;48.774;8.918;2023-08-06T20:54:48;11.62;86.89
47434;SHT31;33184;48.774;8.918;2023-08-06T21:00:09;11.54;87.11
47434;SHT31;33184;48.774;8.918;2023-08-06T21:05:30;11.52;87.48
47434;SHT31;33184;48.774;8.918;2023-08-06T21:10:51;11.50;87.32
47434;SHT31;33184;48.774;8.918;2023-08-06T21:16:12;11.45;87.80
47434;SHT31;33184;48.774;8.918;2023-08-06T21:21:32;11.45;87.67
47434;SHT31;33184;48.774;8.918;2023-08-06T21:26:53;11.40;87.67
47434;SHT31;33184;48.774;8.918;2023-08-06T21:32:14;11.40;87.74
47434;SHT31;33184;48.774;8.918;2023-08-06T21:37:34;11.38;87.86
47434;SHT31;33184;48.774;8.918;2023-08-06T21:42:55;11.35;87.80
47434;SHT31;33184;48.774;8.918;2023-08-06T21:48:16;11.40;87.87
47434;SHT31;33184;48.774;8.918;2023-08-06T21:53:37;11.35;88.16
47434;SHT31;33184;48.774;8.918;2023-08-06T21:58:58;11.32;88.15
47434;SHT31;33184;48.774;8.918;2023-08-06T22:04:20;11.30;88.52
47434;SHT31;33184;48.774;8.918;2023-08-06T22:09:40;11.34;88.22
47434;SHT31;33184;48.774;8.918;2023-08-06T22:15:01;11.35;87.81
47434;SHT31;33184;48.774;8.918;2023-08-06T22:20:21;11.34;88.21
47434;SHT31;33184;48.774;8.918;2023-08-06T22:25:42;11.35;87.24
47434;SHT31;33184;48.774;8.918;2023-08-06T22:31:03;11.34;87.89
47434;SHT31;33184;48.774;8.918;2023-08-06T22:36:24;11.32;88.22
47434;SHT31;33184;48.774;8.918;2023-08-06T22:41:45;11.30;88.45
47434;SHT31;33184;48.774;8.918;2023-08-06T22:47:06;11.27;88.61
47434;SHT31;33184;48.774;8.918;2023-08-06T22:52:27;11.27;88.37
47434;SHT31;33184;48.774;8.918;2023-08-06T22:57:48;11.31;87.99
47434;SHT31;33184;48.774;8.918;2023-08-06T23:03:09;11.27;88.70
47434;SHT31;33184;48.774;8.918;2023-08-06T23:08:29;11.28;88.43
47434;SHT31;33184;48.774;8.918;2023-08-06T23:13:50;11.27;88.36
47434;SHT31;33184;48.774;8.918;2023-08-06T23:19:10;11.25;87.71
47434;SHT31;33184;48.774;8.918;2023-08-06T23:24:31;11.25;88.05
47434;SHT31;33184;48.774;8.918;2023-08-06T23:29:51;11.20;88.11
47434;SHT31;33184;48.774;8.918;2023-08-06T23:35:12;11.17;87.56
47434;SHT31;33184;48.774;8.918;2023-08-06T23:40:32;11.13;87.35
47434;SHT31;33184;48.774;8.918;2023-08-06T23:45:53;11.10;87.44
47434;SHT31;33184;48.774;8.918;2023-08-06T23:51:16;11.03;87.48
47434;SHT31;33184;48.774;8.918;2023-08-06T23:56:36;11.00;87.28
